Time;durP1;ratioP1;P1;durP2;ratioP2;P2;SDS_P1;SDS_P2;PMS_P1;PMS_P2;Temp;Humidity;BMP_temperature;BMP_pressure;BME280_temperature;BME280_humidity;BME280_pressure;Samples;Min_cycle;Max_cycle;Signal;HPM_P1;HPM_P2
2022/04/28 00:01:33;;;;;;;2.10;1.60;;;16.30;57.00;;;;;;10495847;28;20028;-60
2022/04/28 00:06:33;;;;;;;2.03;1.50;;;16.30;57.00;;;;;;10495475;28;20404;-60
2022/04/28 00:11:34;;;;;;;3.08;1.77;;;16.30;57.00;;;;;;10495392;28;20461;-60
2022/04/28 00:16:35;;;;;;;4.13;2.00;;;16.30;57.00;;;;;;10495204;28;20024;-60
2022/04/28 00:21:36;;;;;;;2.20;1.55;;;16.30;57.00;;;;;;10494493;28;20039;-61
2022/04/28 00:26:37;;;;;;;2.97;2.08;;;16.20;56.90;;;;;;10494843;28;20481;-60
2022/04/28 00:31:37;;;;;;;2.55;1.63;;;16.20;56.90;;;;;;10510243;28;20566;-60
2022/04/28 00:36:38;;;;;;;2.72;1.65;;;16.20;56.90;;;;;;10494734;28;20025;-60
2022/04/28 00:41:39;;;;;;;2.42;1.83;;;16.20;56.90;;;;;;10494587;28;20052;-59
2022/04/28 00:46:42;;;;;;;2.47;1.90;;;16.20;56.90;;;;;;10510147;28;20107;-59
2022/04/28 00:51:42;;;;;;;2.92;1.55;;;16.20;56.90;;;;;;10509557;28;20036;-58
2022/04/28 00:56:44;;;;;;;2.20;1.50;;;16.20;56.90;;;;;;10494311;28;20392;-60
2022/04/28 01:01:44;;;;;;;2.85;1.70;;;16.20;56.90;;;;;;10494202;28;20082;-58
2022/04/28 01:06:45;;;;;;;2.85;2.15;;;16.20;56.80;;;;;;10509639;28;20417;-60
2022/04/28 01:11:46;;;;;;;3.45;2.13;;;16.20;56.80;;;;;;10494060;28;20286;-60
2022/04/28 01:16:47;;;;;;;2.40;1.80;;;16.10;56.80;;;;;;10493827;28;20039;-60
2022/04/28 01:21:47;;;;;;;3.47;2.38;;;16.20;56.80;;;;;;10493747;28;20028;-60
2022/04/28 01:26:52;;;;;;;3.88;1.80;;;16.10;56.80;;;;;;10493583;28;20042;-60
2022/04/28 01:31:53;;;;;;;4.22;2.00;;;16.20;56.80;;;;;;10509306;28;20205;-59
2022/04/28 01:36:55;;;;;;;2.45;1.85;;;16.10;56.70;;;;;;10517104;28;20377;-60
2022/04/28 01:41:55;;;;;;;3.50;2.05;;;16.10;56.70;;;;;;10516933;28;20028;-60
2022/04/28 01:46:56;;;;;;;3.70;1.88;;;16.10;56.70;;;;;;10500970;28;20471;-60
2022/04/28 01:57:15;;;;;;;3.27;1.77;;;16.10;56.60;;;;;;10500316;28;20036;-60
2022/04/28 02:02:16;;;;;;;2.72;2.35;;;16.10;56.60;;;;;;10500516;28;20484;-60
2022/04/28 02:07:17;;;;;;;3.45;2.28;;;16.10;56.70;;;;;;10500192;28;20024;-60
2022/04/28 02:12:18;;;;;;;2.88;1.83;;;16.00;56.60;;;;;;10500236;28;20643;-61
2022/04/28 02:17:21;;;;;;;3.65;2.42;;;16.00;56.50;;;;;;10499928;28;20077;-58
2022/04/28 02:22:22;;;;;;;2.45;1.90;;;16.10;56.60;;;;;;10515458;28;20404;-60
2022/04/28 02:27:24;;;;;;;4.03;2.38;;;16.00;56.50;;;;;;10515067;28;20027;-60
2022/04/28 02:32:25;;;;;;;5.30;2.33;;;16.00;56.40;;;;;;10514573;28;20044;-60
2022/04/28 02:37:25;;;;;;;3.15;2.17;;;16.00;56.40;;;;;;10499164;28;20099;-60
2022/04/28 02:42:26;;;;;;;2.97;1.92;;;16.00;56.40;;;;;;10498875;28;20142;-60
2022/04/28 02:47:27;;;;;;;4.15;2.20;;;16.00;56.40;;;;;;10497572;28;20064;-60
2022/04/28 02:52:29;;;;;;;3.42;2.25;;;16.00;56.40;;;;;;10498795;28;20649;-60
2022/04/28 02:57:30;;;;;;;2.42;2.00;;;16.00;56.40;;;;;;10513948;28;20029;-60
2022/04/28 03:02:31;;;;;;;2.10;1.90;;;16.00;56.30;;;;;;10498223;28;20492;-60
2022/04/28 03:13:02;;;;;;;;;;;15.90;56.20;;;;;;10499924;28;20548;-60
2022/04/28 03:18:03;;;;;;;5.90;2.50;;;15.90;56.20;;;;;;10496359;28;19912;-59
2022/04/28 03:23:04;;;;;;;4.93;2.42;;;15.90;56.20;;;;;;10497169;28;20438;-59
2022/04/28 03:28:06;;;;;;;2.80;1.98;;;15.90;56.20;;;;;;10497143;28;20116;-60
2022/04/28 03:33:07;;;;;;;3.53;2.17;;;15.90;56.20;;;;;;10496712;28;20072;-59
2022/04/28 03:38:11;;;;;;;2.70;1.70;;;15.90;56.20;;;;;;10496702;28;20028;-59
2022/04/28 03:43:12;;;;;;;4.15;2.88;;;15.80;56.10;;;;;;10496729;28;20400;-59
2022/04/28 03:48:14;;;;;;;2.72;1.70;;;15.90;56.20;;;;;;10511735;28;20024;-59
2022/04/28 03:53:14;;;;;;;3.35;1.85;;;15.80;56.10;;;;;;10496262;28;20043;-59
2022/04/28 03:58:15;;;;;;;6.93;2.72;;;15.80;56.10;;;;;;10495804;28;20502;-60
2022/04/28 04:03:17;;;;;;;4.10;2.13;;;15.80;56.10;;;;;;10495200;28;20033;-59
2022/04/28 04:08:18;;;;;;;2.70;2.40;;;15.80;56.10;;;;;;10492800;28;20039;-58
2022/04/28 04:13:18;;;;;;;3.03;2.00;;;15.80;56.10;;;;;;10496132;28;20042;-59
2022/04/28 04:18:19;;;;;;;5.30;2.63;;;15.80;56.10;;;;;;10496094;28;20496;-60
2022/04/28 04:23:20;;;;;;;3.75;2.78;;;15.80;56.10;;;;;;10496105;28;20111;-59
2022/04/28 04:28:20;;;;;;;2.78;2.13;;;15.80;56.10;;;;;;10496096;28;20053;-59
2022/04/28 04:33:21;;;;;;;2.78;2.30;;;15.80;56.10;;;;;;10495678;28;20110;-59
2022/04/28 04:38:22;;;;;;;4.10;2.55;;;15.70;56.00;;;;;;10495725;28;20119;-60
2022/04/28 04:43:22;;;;;;;3.30;2.85;;;15.70;56.00;;;;;;10511235;28;20059;-59
2022/04/28 04:48:24;;;;;;;3.95;2.50;;;15.70;56.10;;;;;;10495331;28;20036;-59
2022/04/28 04:53:25;;;;;;;2.92;1.92;;;15.70;56.00;;;;;;10495562;28;20021;-59
2022/04/28 04:58:26;;;;;;;3.30;1.92;;;15.70;55.90;;;;;;10495812;28;20033;-60
2022/04/28 05:03:27;;;;;;;2.75;2.15;;;15.70;56.60;;;;;;10495255;28;20481;-60
2022/04/28 05:08:27;;;;;;;3.65;2.60;;;15.70;56.00;;;;;;10513539;28;20474;-60
2022/04/28 05:13:28;;;;;;;3.00;2.13;;;15.70;56.00;;;;;;10503870;28;20142;-61
2022/04/28 05:18:29;;;;;;;4.57;2.55;;;15.70;56.00;;;;;;10503391;28;20036;-60
2022/04/28 05:23:30;;;;;;;3.35;2.50;;;15.70;56.00;;;;;;10503074;28;20032;-61
2022/04/28 05:28:30;;;;;;;2.90;2.20;;;15.70;56.00;;;;;;10518497;28;20028;-59
2022/04/28 05:33:31;;;;;;;5.13;2.42;;;15.70;56.10;;;;;;10518294;28;20075;-61
2022/04/28 05:38:32;;;;;;;2.85;2.28;;;15.70;56.10;;;;;;10502484;28;20060;-60
2022/04/28 05:48:54;;;;;;;6.30;2.55;;;15.60;56.10;;;;;;10515644;28;20037;-59
2022/04/28 05:53:56;;;;;;;3.50;2.58;;;15.70;56.10;;;;;;10517760;28;20025;-60
2022/04/28 05:58:57;;;;;;;2.75;2.25;;;15.70;56.20;;;;;;10501642;28;20025;-60
2022/04/28 06:03:58;;;;;;;2.45;1.75;;;15.70;56.30;;;;;;10517127;28;20463;-59
2022/04/28 06:08:59;;;;;;;4.18;2.45;;;15.70;56.30;;;;;;10517020;28;20166;-59
2022/04/28 06:13:59;;;;;;;3.13;1.95;;;15.60;56.30;;;;;;10501197;28;20048;-60
2022/04/28 06:19:00;;;;;;;3.03;2.45;;;15.60;56.30;;;;;;10499807;28;20041;-60
2022/04/28 06:24:01;;;;;;;3.03;2.00;;;15.70;56.30;;;;;;10514464;28;20056;-59
2022/04/28 06:29:01;;;;;;;4.35;2.42;;;15.60;56.30;;;;;;10500509;28;20064;-59
2022/04/28 06:34:02;;;;;;;8.10;2.83;;;15.70;56.40;;;;;;10500279;28;20063;-59
2022/04/28 06:39:03;;;;;;;3.58;2.35;;;15.60;56.40;;;;;;10500339;28;20032;-57
2022/04/28 06:44:04;;;;;;;2.92;1.98;;;15.60;56.40;;;;;;10499966;28;20036;-61
2022/04/28 06:49:04;;;;;;;5.97;2.30;;;15.60;56.50;;;;;;10499952;28;20028;-60
2022/04/28 06:54:05;;;;;;;3.15;2.47;;;15.70;56.60;;;;;;10500248;28;20483;-59
2022/04/28 06:59:06;;;;;;;2.53;1.90;;;15.60;56.60;;;;;;10499454;28;20036;-59
2022/04/28 07:04:07;;;;;;;4.47;2.13;;;15.60;56.70;;;;;;10499567;28;20028;-59
2022/04/28 07:09:08;;;;;;;3.30;2.33;;;15.60;56.70;;;;;;10499056;28;20056;-60
2022/04/28 07:14:08;;;;;;;3.50;2.38;;;15.70;56.70;;;;;;10498660;28;20028;-59
2022/04/28 07:19:09;;;;;;;3.03;1.90;;;15.60;56.80;;;;;;10498692;28;20051;-60
2022/04/28 07:24:09;;;;;;;2.58;1.90;;;15.60;56.80;;;;;;10511994;28;20052;-60
2022/04/28 07:29:10;;;;;;;4.35;1.80;;;15.60;56.90;;;;;;10498120;28;20059;-57
2022/04/28 07:34:11;;;;;;;2.97;2.13;;;15.60;57.00;;;;;;10497395;28;20189;-59
2022/04/28 07:39:12;;;;;;;3.22;2.40;;;15.60;57.00;;;;;;10513271;28;20115;-60
2022/04/28 07:44:13;;;;;;;3.88;2.35;;;15.70;57.20;;;;;;10497791;28;20040;-60
2022/04/28 07:49:13;;;;;;;2.40;1.83;;;15.70;57.20;;;;;;10497256;28;20360;-61
2022/04/28 07:54:17;;;;;;;2.53;2.13;;;15.70;57.10;;;;;;10497098;28;20107;-60
2022/04/28 07:59:17;;;;;;;5.55;2.35;;;15.70;57.10;;;;;;10497259;28;20039;-59
2022/04/28 08:04:18;;;;;;;2.67;2.00;;;15.80;57.10;;;;;;10496638;28;20108;-58
2022/04/28 08:09:19;;;;;;;2.65;1.83;;;15.80;57.00;;;;;;10496350;28;20469;-59
2022/04/28 08:14:23;;;;;;;5.03;2.55;;;15.80;57.10;;;;;;10496561;28;20055;-59
2022/04/28 08:19:25;;;;;;;3.80;2.03;;;15.80;57.10;;;;;;10496672;28;20051;-60
2022/04/28 08:24:26;;;;;;;3.30;2.00;;;15.80;57.10;;;;;;10496065;28;20394;-59
2022/04/28 08:29:26;;;;;;;3.63;2.08;;;15.80;57.10;;;;;;10495944;28;20115;-59
2022/04/28 08:34:27;;;;;;;2.08;1.65;;;15.90;57.20;;;;;;10511579;28;20040;-60
2022/04/28 08:39:28;;;;;;;3.35;2.38;;;15.80;57.20;;;;;;10495597;28;20113;-60
2022/04/28 08:44:29;;;;;;;4.85;1.90;;;15.90;57.40;;;;;;10495020;28;20442;-59
2022/04/28 08:49:32;;;;;;;3.67;2.30;;;15.90;57.40;;;;;;10495556;28;20438;-59
2022/04/28 08:54:36;;;;;;;3.42;2.83;;;15.90;57.40;;;;;;10495506;28;20429;-60
2022/04/28 08:59:37;;;;;;;2.25;1.88;;;15.90;57.40;;;;;;10495442;28;20055;-60
2022/04/28 09:04:38;;;;;;;2.38;1.58;;;15.90;57.40;;;;;;10510952;28;20048;-59
2022/04/28 09:09:39;;;;;;;3.90;1.98;;;16.00;57.50;;;;;;10495194;28;20032;-59
2022/04/28 09:14:46;;;;;;;3.28;2.00;;;16.00;57.40;;;;;;10495622;28;20035;-59
2022/04/28 09:19:46;;;;;;;2.95;2.47;;;16.00;57.50;;;;;;10495093;28;20480;-59
2022/04/28 09:24:47;;;;;;;3.80;1.90;;;16.00;57.60;;;;;;10508607;28;20100;-59
2022/04/28 09:29:48;;;;;;;3.08;1.73;;;16.00;57.60;;;;;;10494882;28;20044;-60
2022/04/28 09:34:50;;;;;;;3.65;2.45;;;16.00;57.70;;;;;;10494633;28;20087;-60
2022/04/28 09:45:16;;;;;;;1.83;1.50;;;16.00;57.80;;;;;;10495057;28;20115;-59
2022/04/28 09:50:17;;;;;;;3.28;2.78;;;16.00;57.90;;;;;;10494354;28;20036;-60
2022/04/28 09:55:20;;;;;;;3.50;2.08;;;16.10;58.00;;;;;;10498402;28;20048;-59
2022/04/28 10:00:21;;;;;;;3.95;1.95;;;16.10;58.00;;;;;;10517298;28;20394;-59
2022/04/28 10:05:25;;;;;;;2.42;1.70;;;16.10;58.00;;;;;;10517077;28;20060;-59
2022/04/28 10:10:26;;;;;;;2.58;1.75;;;16.10;58.00;;;;;;10516817;28;20094;-59
2022/04/28 10:15:32;;;;;;;3.85;1.88;;;16.20;58.00;;;;;;10501368;28;20459;-60
2022/04/28 10:20:40;;;;;;;3.35;2.28;;;16.20;58.00;;;;;;10500956;28;20032;-58
2022/04/28 10:36:23;;;;;;;2.57;2.10;;;16.30;57.80;;;;;;10459475;28;20033;-59
2022/04/28 10:41:29;;;;;;;3.33;2.13;;;16.30;57.80;;;;;;10458597;28;20037;-60
2022/04/28 10:46:31;;;;;;;3.53;2.15;;;16.40;57.80;;;;;;10474102;28;20021;-60
2022/04/28 10:51:33;;;;;;;2.72;1.80;;;16.40;57.80;;;;;;10458490;28;20040;-58
2022/04/28 10:56:40;;;;;;;2.65;1.75;;;16.40;57.70;;;;;;10458553;28;20029;-59
2022/04/28 11:01:42;;;;;;;2.95;2.22;;;16.50;57.80;;;;;;10458017;28;20491;-59
2022/04/28 11:06:57;;;;;;;2.33;1.83;;;16.50;57.80;;;;;;10456847;28;20469;-57
2022/04/28 11:12:17;;;;;;;2.58;1.83;;;16.50;57.60;;;;;;10458041;28;20044;-58
2022/04/28 11:17:21;;;;;;;3.22;2.42;;;16.50;57.60;;;;;;10457779;28;20033;-59
2022/04/28 11:22:22;;;;;;;2.25;1.73;;;16.60;57.60;;;;;;10488915;28;20036;-60
2022/04/28 11:27:27;;;;;;;2.60;1.73;;;16.50;57.70;;;;;;10513885;28;20032;-59
2022/04/28 11:32:27;;;;;;;2.50;2.00;;;16.60;57.70;;;;;;10498236;28;20063;-59
2022/04/28 11:37:29;;;;;;;2.10;1.67;;;16.60;57.80;;;;;;10498048;28;20067;-59
2022/04/28 11:42:31;;;;;;;2.05;1.73;;;16.60;57.80;;;;;;10513302;28;20503;-60
2022/04/28 11:47:42;;;;;;;2.17;1.52;;;16.60;57.80;;;;;;10513063;28;20077;-60
2022/04/28 11:52:43;;;;;;;2.30;1.80;;;16.70;57.80;;;;;;10512866;28;20040;-59
2022/04/28 11:57:44;;;;;;;2.20;1.52;;;16.70;57.90;;;;;;10497282;28;20459;-60
2022/04/28 12:02:44;;;;;;;3.28;1.60;;;16.70;58.40;;;;;;10496853;28;20494;-58
2022/04/28 12:07:52;;;;;;;3.10;1.80;;;16.80;57.70;;;;;;10512177;28;20485;-59
2022/04/28 12:23:40;;;;;;;2.92;1.60;;;16.90;57.80;;;;;;10496732;28;20068;-59
2022/04/28 12:28:43;;;;;;;2.27;1.80;;;16.90;57.70;;;;;;10510996;28;20032;-59
2022/04/28 12:33:46;;;;;;;1.80;1.40;;;16.90;57.70;;;;;;10496025;28;20457;-59
2022/04/28 12:38:51;;;;;;;2.17;1.55;;;16.90;57.50;;;;;;10495808;28;20036;-60
2022/04/28 12:43:57;;;;;;;5.30;1.98;;;17.00;57.60;;;;;;10495671;28;20033;-59
2022/04/28 12:49:03;;;;;;;2.35;1.63;;;17.00;57.70;;;;;;10511249;28;20119;-59
2022/04/28 12:54:16;;;;;;;4.10;2.05;;;17.00;57.70;;;;;;10510632;28;20063;-60
2022/04/28 12:59:18;;;;;;;2.30;1.60;;;17.00;57.70;;;;;;10496019;28;20111;-59
2022/04/28 13:04:22;;;;;;;2.85;1.67;;;17.10;57.70;;;;;;10495378;28;20032;-59
2022/04/28 13:09:23;;;;;;;2.47;1.55;;;17.10;57.70;;;;;;10494955;28;20123;-60
2022/04/28 13:14:24;;;;;;;1.75;1.30;;;17.10;57.70;;;;;;10510898;28;20056;-58
2022/04/28 13:19:25;;;;;;;2.45;2.08;;;17.10;57.70;;;;;;10510749;28;20067;-59
2022/04/28 13:24:25;;;;;;;2.08;1.67;;;17.10;57.70;;;;;;10494931;28;20512;-59
2022/04/28 13:29:26;;;;;;;2.42;1.70;;;17.20;57.70;;;;;;10497652;28;20067;-58
2022/04/28 13:34:27;;;;;;;2.05;1.58;;;17.20;57.70;;;;;;10502786;28;20043;-59
2022/04/28 13:39:28;;;;;;;3.03;1.73;;;17.20;57.70;;;;;;10518437;28;20029;-59
2022/04/28 13:44:28;;;;;;;3.00;1.73;;;17.20;57.60;;;;;;10502354;28;20127;-58
2022/04/28 13:49:29;;;;;;;2.92;2.22;;;17.20;57.60;;;;;;10502112;28;20107;-59
2022/04/28 13:54:30;;;;;;;2.20;1.50;;;17.20;57.60;;;;;;10502198;28;20071;-60
2022/04/28 13:59:31;;;;;;;1.63;1.40;;;17.20;57.60;;;;;;10517385;28;20153;-58
2022/04/28 14:04:31;;;;;;;1.60;1.23;;;17.30;57.70;;;;;;10502225;28;20526;-59
2022/04/28 14:09:33;;;;;;;2.45;1.52;;;17.20;57.60;;;;;;10517260;28;20484;-59
2022/04/28 14:14:34;;;;;;;2.53;1.60;;;17.30;57.80;;;;;;10501243;28;20027;-59
2022/04/28 14:19:35;;;;;;;2.53;1.80;;;17.20;57.70;;;;;;10501101;28;20374;-59
2022/04/28 14:24:35;;;;;;;2.95;1.50;;;17.20;57.70;;;;;;10500953;28;20059;-60
2022/04/28 14:29:36;;;;;;;2.47;1.60;;;17.20;57.80;;;;;;10500809;28;20451;-60
2022/04/28 14:34:38;;;;;;;2.55;1.73;;;17.20;57.90;;;;;;10500363;28;20048;-61
2022/04/28 14:39:40;;;;;;;2.30;1.60;;;17.20;57.90;;;;;;10515048;28;20391;-61
2022/04/28 14:44:40;;;;;;;3.08;1.52;;;17.20;58.00;;;;;;10516000;28;20063;-60
2022/04/28 14:55:06;;;;;;;1.83;1.42;;;17.20;58.00;;;;;;10500109;28;20397;-60
2022/04/28 15:00:23;;;;;;;1.80;1.45;;;17.20;58.10;;;;;;10515140;28;20032;-61
2022/04/28 15:05:24;;;;;;;1.67;1.45;;;17.20;58.20;;;;;;10499409;28;20082;-60
2022/04/28 15:10:24;;;;;;;2.00;1.52;;;17.10;58.10;;;;;;10499188;28;20400;-59
2022/04/28 15:15:25;;;;;;;2.80;1.88;;;17.10;58.10;;;;;;10498990;28;20029;-59
2022/04/28 15:20:26;;;;;;;2.03;1.48;;;17.10;58.20;;;;;;10498495;28;20153;-60
2022/04/28 15:25:27;;;;;;;1.40;1.20;;;17.10;58.20;;;;;;10514288;28;20085;-60
2022/04/28 15:30:28;;;;;;;1.38;1.25;;;17.10;58.20;;;;;;10497879;28;20031;-60
2022/04/28 15:35:28;;;;;;;2.00;1.48;;;17.10;58.30;;;;;;10514240;28;20104;-60
2022/04/28 15:40:30;;;;;;;2.47;1.50;;;17.10;58.40;;;;;;10498178;28;20595;-60
2022/04/28 15:45:31;;;;;;;2.30;1.48;;;17.10;58.40;;;;;;10498236;28;20074;-60
2022/04/28 15:50:32;;;;;;;2.67;1.70;;;17.10;58.40;;;;;;10496016;28;20133;-61
2022/04/28 15:55:32;;;;;;;1.85;1.58;;;17.10;58.40;;;;;;10512787;28;20078;-59
2022/04/28 16:00:33;;;;;;;2.75;1.80;;;17.00;58.40;;;;;;10496925;28;20115;-60
2022/04/28 16:05:34;;;;;;;1.30;1.20;;;17.00;58.50;;;;;;10512566;28;20099;-59
2022/04/28 16:10:36;;;;;;;2.05;1.25;;;17.00;58.60;;;;;;10496868;28;20500;-61
2022/04/28 16:15:37;;;;;;;2.83;1.65;;;17.00;58.70;;;;;;10496464;28;20037;-61
2022/04/28 16:20:38;;;;;;;2.42;1.58;;;16.90;58.70;;;;;;10496374;28;20116;-58
2022/04/28 16:25:38;;;;;;;2.55;1.50;;;16.90;58.70;;;;;;10496345;28;20047;-60
2022/04/28 16:30:41;;;;;;;2.10;1.58;;;16.90;58.80;;;;;;10495925;28;20108;-60
2022/04/28 16:35:42;;;;;;;2.75;1.92;;;16.90;58.70;;;;;;10496112;28;20032;-59
2022/04/28 16:40:43;;;;;;;2.45;1.60;;;16.90;58.70;;;;;;10495955;28;20430;-61
2022/04/28 16:45:46;;;;;;;1.80;1.40;;;16.90;58.70;;;;;;10496358;28;20032;-60
2022/04/28 16:50:46;;;;;;;1.77;1.45;;;16.90;58.70;;;;;;10510895;28;20480;-61
2022/04/28 16:55:47;;;;;;;2.67;1.60;;;16.90;58.70;;;;;;10511261;28;20182;-60
2022/04/28 17:00:48;;;;;;;3.47;1.60;;;16.90;58.70;;;;;;10510948;28;20078;-60
2022/04/28 17:05:49;;;;;;;1.85;1.33;;;16.90;58.80;;;;;;10494404;28;20430;-59
2022/04/28 17:10:49;;;;;;;2.88;1.83;;;16.80;58.80;;;;;;10495075;28;20496;-60
2022/04/28 17:15:51;;;;;;;2.00;1.50;;;16.80;58.80;;;;;;10495048;28;20399;-58
2022/04/28 17:20:52;;;;;;;2.17;1.45;;;16.80;58.80;;;;;;10495119;28;20099;-59
2022/04/28 17:25:52;;;;;;;1.63;1.23;;;16.80;58.80;;;;;;10494665;28;20119;-60
2022/04/28 17:30:53;;;;;;;2.67;1.30;;;16.80;58.90;;;;;;10494499;28;20175;-59
2022/04/28 17:35:54;;;;;;;1.55;1.23;;;16.80;58.90;;;;;;10494863;28;20048;-60
2022/04/28 17:40:55;;;;;;;2.28;1.38;;;16.80;58.90;;;;;;10509953;28;20094;-61
2022/04/28 17:45:55;;;;;;;2.00;1.67;;;16.80;59.00;;;;;;10494476;28;20063;-61
2022/04/28 17:50:57;;;;;;;2.40;1.60;;;16.80;58.80;;;;;;10494416;28;20489;-61
2022/04/28 18:01:18;;;;;;;2.45;1.63;;;16.80;58.90;;;;;;10494850;28;20048;-62
2022/04/28 18:06:20;;;;;;;1.85;1.30;;;16.80;58.90;;;;;;10494223;28;20079;-61
2022/04/28 18:11:21;;;;;;;1.73;1.42;;;16.80;58.90;;;;;;10494079;28;20025;-61
2022/04/28 18:16:25;;;;;;;1.35;1.13;;;16.80;59.00;;;;;;10497906;28;20439;-60
2022/04/28 18:21:27;;;;;;;1.60;1.17;;;16.70;58.80;;;;;;10516667;28;20056;-60
2022/04/28 18:26:28;;;;;;;2.63;1.77;;;16.70;58.90;;;;;;10516631;28;20047;-60
2022/04/28 18:31:29;;;;;;;2.75;1.40;;;16.70;58.80;;;;;;10516058;28;20048;-60
2022/04/28 18:47:10;;;;;;;2.40;1.90;;;16.70;58.70;;;;;;10500254;28;20041;-61
2022/04/28 18:52:11;;;;;;;1.63;1.30;;;16.70;58.70;;;;;;10500077;28;20028;-60
2022/04/28 18:57:17;;;;;;;2.60;1.83;;;16.70;58.70;;;;;;10515408;28;20481;-61
2022/04/28 19:02:18;;;;;;;2.20;1.55;;;16.70;58.70;;;;;;10499827;28;20032;-59
2022/04/28 19:07:20;;;;;;;2.53;2.28;;;16.70;58.60;;;;;;10499485;28;20569;-61
2022/04/28 19:12:21;;;;;;;3.90;1.60;;;16.70;58.60;;;;;;10499337;28;20534;-61
2022/04/28 19:17:33;;;;;;;2.85;1.90;;;16.70;58.70;;;;;;10498877;28;20052;-61
2022/04/28 19:22:36;;;;;;;3.30;1.40;;;16.70;58.70;;;;;;10498594;28;20024;-61
2022/04/28 19:27:37;;;;;;;2.92;1.50;;;16.70;58.60;;;;;;10497428;28;20036;-62
2022/04/28 19:32:39;;;;;;;2.55;1.48;;;16.70;58.60;;;;;;10497079;28;20047;-59
2022/04/28 19:37:41;;;;;;;3.22;1.65;;;16.70;58.70;;;;;;10512648;28;20039;-61
2022/04/28 19:42:41;;;;;;;2.08;1.20;;;16.70;58.80;;;;;;10496788;28;20496;-58
2022/04/28 19:47:44;;;;;;;1.73;1.50;;;16.60;58.70;;;;;;10511502;28;20072;-59
2022/04/28 19:52:45;;;;;;;2.22;1.48;;;16.70;58.70;;;;;;10496600;28;20020;-60
2022/04/28 19:57:46;;;;;;;1.98;1.50;;;16.70;58.80;;;;;;10496012;28;20029;-60
2022/04/28 20:02:47;;;;;;;3.42;1.25;;;16.70;58.80;;;;;;10495992;28;20376;-60
2022/04/28 20:07:47;;;;;;;2.08;1.20;;;16.70;59.40;;;;;;10495792;28;20060;-62
2022/04/28 20:12:48;;;;;;;2.92;1.50;;;16.70;58.80;;;;;;10495618;28;20436;-60
2022/04/28 20:17:51;;;;;;;2.38;1.58;;;16.70;58.70;;;;;;10495443;28;20492;-61
2022/04/28 20:22:52;;;;;;;2.20;1.50;;;16.70;58.70;;;;;;10510272;28;20040;-60
2022/04/28 20:27:53;;;;;;;2.03;1.30;;;16.70;58.70;;;;;;10495251;28;20436;-62
2022/04/28 20:32:54;;;;;;;2.88;1.70;;;16.70;58.70;;;;;;10494969;28;20086;-61
2022/04/28 20:38:01;;;;;;;3.55;2.08;;;16.70;58.60;;;;;;10493686;28;20063;-61
2022/04/28 20:43:02;;;;;;;1.85;1.60;;;16.70;58.60;;;;;;10494674;28;20032;-59
2022/04/28 20:48:04;;;;;;;1.65;1.38;;;16.70;58.30;;;;;;10494942;28;20074;-62
2022/04/28 20:53:07;;;;;;;1.73;1.35;;;16.60;58.30;;;;;;10509779;28;20104;-62
2022/04/28 20:58:10;;;;;;;1.67;1.40;;;16.70;58.10;;;;;;10494907;28;20060;-61
2022/04/28 21:03:11;;;;;;;1.30;1.20;;;16.60;58.10;;;;;;10494235;28;20033;-61
2022/04/28 21:08:12;;;;;;;3.00;1.30;;;16.60;58.30;;;;;;10494216;28;20039;-61
2022/04/28 21:13:13;;;;;;;2.22;1.45;;;16.60;57.90;;;;;;10509588;28;20052;-61
2022/04/28 21:18:16;;;;;;;2.45;1.30;;;16.60;58.10;;;;;;10494082;28;20075;-60
2022/04/28 21:23:16;;;;;;;3.58;1.60;;;16.60;58.00;;;;;;10509239;28;20029;-62
2022/04/28 21:28:17;;;;;;;2.80;1.30;;;16.60;58.00;;;;;;10509270;28;20103;-61
2022/04/28 21:33:18;;;;;;;2.42;1.40;;;16.60;58.50;;;;;;10509043;28;20469;-62
2022/04/28 21:38:21;;;;;;;1.95;1.55;;;16.60;57.90;;;;;;10509594;28;20025;-61
2022/04/28 21:43:22;;;;;;;1.70;1.40;;;16.60;57.70;;;;;;10492280;28;20515;-61
2022/04/28 21:48:23;;;;;;;3.20;1.50;;;16.60;57.90;;;;;;10508987;28;20064;-61
2022/04/28 21:53:23;;;;;;;1.95;1.38;;;16.60;57.70;;;;;;10500568;28;20052;-59
2022/04/28 21:58:24;;;;;;;1.73;1.23;;;16.60;57.90;;;;;;10516934;28;20032;-61
2022/04/28 22:14:03;;;;;;;1.90;1.30;;;16.60;57.80;;;;;;10500399;28;20059;-61
2022/04/28 22:19:04;;;;;;;3.08;1.67;;;16.60;57.70;;;;;;10500295;28;20388;-60
2022/04/28 22:24:06;;;;;;;1.73;1.17;;;16.50;57.70;;;;;;10499904;28;20025;-62
2022/04/28 22:29:06;;;;;;;2.22;1.25;;;16.60;57.70;;;;;;10500167;28;20025;-62
2022/04/28 22:34:09;;;;;;;4.05;1.42;;;16.60;57.80;;;;;;10499591;28;20036;-61
2022/04/28 22:39:10;;;;;;;2.20;1.40;;;16.60;57.80;;;;;;10514953;28;20158;-61
2022/04/28 22:44:12;;;;;;;2.45;1.50;;;16.50;57.70;;;;;;10515064;28;20120;-61
2022/04/28 22:49:12;;;;;;;3.67;1.63;;;16.50;57.70;;;;;;10514597;28;20036;-61
2022/04/28 22:54:13;;;;;;;1.75;1.20;;;16.50;57.60;;;;;;10498877;28;20054;-59
2022/04/28 22:59:14;;;;;;;2.13;1.48;;;16.50;57.70;;;;;;10499278;28;20109;-59
2022/04/28 23:04:15;;;;;;;2.42;1.60;;;16.50;57.70;;;;;;10497465;28;20103;-59
2022/04/28 23:09:18;;;;;;;1.98;1.60;;;16.50;57.60;;;;;;10498194;28;20400;-60
2022/04/28 23:14:19;;;;;;;3.03;1.80;;;16.50;57.70;;;;;;10498023;28;20024;-59
2022/04/28 23:19:19;;;;;;;1.85;1.05;;;16.50;57.60;;;;;;10496668;28;20388;-59
2022/04/28 23:24:21;;;;;;;2.40;1.45;;;16.50;57.60;;;;;;10511515;28;20029;-59
2022/04/28 23:29:22;;;;;;;2.22;1.50;;;16.50;57.80;;;;;;10497539;28;20028;-58
2022/04/28 23:39:42;;;;;;;2.40;1.75;;;16.50;57.70;;;;;;10498013;28;20048;-61
2022/04/28 23:44:43;;;;;;;1.70;1.25;;;16.50;57.60;;;;;;10497325;28;20108;-60
2022/04/28 23:49:43;;;;;;;2.03;1.40;;;16.50;57.60;;;;;;10512327;28;20067;-60
2022/04/28 23:54:50;;;;;;;2.80;1.42;;;16.50;57.70;;;;;;10496413;28;20395;-61
2022/04/28 23:59:51;;;;;;;2.30;1.88;;;16.50;57.60;;;;;;10496556;28;20082;-61
